National Weather Service Raw Text Product

Displaying AFOS PIL: TAFFOD Received: 2017-10-13 11:38 UTC


698 
FTUS43 KDMX 131138
TAFFOD
TAF
KFOD 131138Z 1312/1412 05004KT 5SM BR OVC005
     FM131400 02006KT P6SM SCT010 BKN040
     FM131700 03008KT P6SM VCSH BKN040
     FM132100 04008KT P6SM OVC040
     FM140900 06006KT P6SM BKN023=